createdAt,value
2023-05-13T00:00:37.612Z,44.39
2023-05-13T00:03:08.460Z,44.23
2023-05-13T00:05:39.724Z,44.59
2023-05-13T00:08:09.820Z,44.45
2023-05-13T00:10:39.716Z,44.32
2023-05-13T00:13:11.942Z,44.61
2023-05-13T00:15:43.573Z,44.19
2023-05-13T00:18:14.136Z,44.40
2023-05-13T00:20:44.092Z,44.19
2023-05-13T00:23:14.996Z,44.54
2023-05-13T00:25:46.497Z,44.29
2023-05-13T00:28:18.805Z,44.75
2023-05-13T00:30:50.315Z,44.72
2023-05-13T00:33:21.075Z,44.38
2023-05-13T00:35:51.484Z,44.22
2023-05-13T00:38:21.622Z,44.68
2023-05-13T00:40:52.587Z,44.87
2023-05-13T00:43:25.328Z,44.34
2023-05-13T00:45:55.785Z,44.64
2023-05-13T00:48:27.270Z,44.50
2023-05-13T00:50:58.423Z,44.26
2023-05-13T00:53:28.525Z,44.68
2023-05-13T00:55:59.090Z,44.39
2023-05-13T00:58:31.870Z,45.02
2023-05-13T01:01:13.960Z,44.66
2023-05-13T01:03:56.268Z,44.54
2023-05-13T01:06:43.153Z,44.36
2023-05-13T01:09:29.619Z,44.45
2023-05-13T01:12:11.056Z,44.39
2023-05-13T01:14:51.555Z,44.35
2023-05-13T01:17:34.777Z,44.52
2023-05-13T01:20:06.959Z,44.52
2023-05-13T01:22:38.829Z,44.45
2023-05-13T01:25:10.445Z,44.66
2023-05-13T01:27:40.952Z,44.48
2023-05-13T01:30:13.722Z,44.42
2023-05-13T01:32:44.134Z,44.64
2023-05-13T01:35:16.339Z,44.61
2023-05-13T01:37:50.657Z,44.71
2023-05-13T01:40:31.693Z,44.66
2023-05-13T01:43:03.790Z,44.33
2023-05-13T01:45:35.314Z,44.28
2023-05-13T01:48:05.476Z,44.73
2023-05-13T01:50:36.358Z,44.25
2023-05-13T01:53:10.716Z,44.61
2023-05-13T01:55:41.493Z,44.56
2023-05-13T01:58:12.002Z,44.24
2023-05-13T02:00:42.017Z,44.94
2023-05-13T02:03:12.803Z,44.37
2023-05-13T02:05:43.185Z,44.21
2023-05-13T02:08:15.758Z,44.25
2023-05-13T02:10:45.983Z,44.28
2023-05-13T02:13:16.759Z,44.27
2023-05-13T02:15:47.375Z,44.24
2023-05-13T02:18:17.454Z,44.56
2023-05-13T02:20:48.211Z,44.31
2023-05-13T02:23:20.369Z,44.57
2023-05-13T02:25:50.835Z,44.33
2023-05-13T02:28:21.401Z,44.32
2023-05-13T02:30:51.851Z,44.56
2023-05-13T02:33:22.804Z,44.69
2023-05-13T02:35:53.419Z,44.54
2023-05-13T02:38:25.915Z,44.59
2023-05-13T02:40:56.323Z,44.29
2023-05-13T02:43:27.958Z,44.52
2023-05-13T02:45:57.915Z,44.57
2023-05-13T02:48:28.535Z,44.53
2023-05-13T02:50:59.000Z,44.57
2023-05-13T02:53:31.312Z,44.68
2023-05-13T02:56:01.829Z,44.20
2023-05-13T02:58:32.105Z,44.51
2023-05-13T03:01:02.723Z,44.55
2023-05-13T03:03:33.503Z,44.48
2023-05-13T03:06:03.682Z,44.45
2023-05-13T03:08:35.633Z,44.41
2023-05-13T03:11:06.211Z,44.43
2023-05-13T03:13:36.786Z,44.47
2023-05-13T03:16:07.780Z,44.59
2023-05-13T03:18:38.414Z,44.66
2023-05-13T03:21:09.140Z,44.43
2023-05-13T03:23:41.486Z,44.37
2023-05-13T03:26:12.094Z,44.58
2023-05-13T03:28:42.163Z,44.61
2023-05-13T03:31:12.792Z,44.72
2023-05-13T03:33:43.548Z,44.61
2023-05-13T03:36:14.105Z,44.70
2023-05-13T03:38:46.177Z,44.43
2023-05-13T03:41:17.971Z,44.39
2023-05-13T03:43:48.748Z,44.76
2023-05-13T03:46:19.385Z,44.77
2023-05-13T03:48:50.251Z,44.73
2023-05-13T03:51:21.286Z,44.62
2023-05-13T03:53:53.453Z,44.68
2023-05-13T03:56:24.083Z,44.72
2023-05-13T03:58:54.632Z,44.91
2023-05-13T04:01:25.493Z,44.71
2023-05-13T04:03:55.075Z,44.86
2023-05-13T04:06:25.551Z,44.55
2023-05-13T04:08:57.973Z,44.85
2023-05-13T04:11:28.557Z,44.55
2023-05-13T04:13:58.380Z,44.24
2023-05-13T04:16:28.296Z,44.92
2023-05-13T04:18:59.373Z,44.87
2023-05-13T04:21:29.407Z,44.82
2023-05-13T04:24:01.758Z,44.76
2023-05-13T04:26:31.697Z,44.94
2023-05-13T04:29:02.144Z,44.81
2023-05-13T04:31:32.452Z,44.54
2023-05-13T04:34:02.918Z,44.73
2023-05-13T04:36:33.226Z,44.36
2023-05-13T04:39:05.879Z,44.96
2023-05-13T04:41:36.491Z,45.01
2023-05-13T04:44:08.021Z,44.61
2023-05-13T04:46:40.878Z,44.79
2023-05-13T04:49:11.325Z,44.77
2023-05-13T04:51:42.313Z,44.93
2023-05-13T04:54:15.064Z,44.88
2023-05-13T04:56:45.645Z,45.07
2023-05-13T04:59:16.274Z,44.64
2023-05-13T05:01:46.383Z,44.65
2023-05-13T05:04:16.790Z,44.90
2023-05-13T05:06:47.280Z,44.53
2023-05-13T05:09:19.905Z,44.79
2023-05-13T05:11:51.116Z,44.66
2023-05-13T05:14:21.648Z,44.54
2023-05-13T05:16:52.180Z,44.65
2023-05-13T05:19:24.562Z,44.37
2023-05-13T05:21:54.862Z,44.31
2023-05-13T05:24:27.384Z,44.36
2023-05-13T05:26:58.037Z,44.52
2023-05-13T05:29:28.831Z,44.36
2023-05-13T05:31:59.643Z,44.71
2023-05-13T05:34:30.382Z,44.94
2023-05-13T05:37:00.483Z,44.34
2023-05-13T05:39:32.655Z,44.31
2023-05-13T05:42:03.737Z,44.51
2023-05-13T05:44:34.289Z,44.59
2023-05-13T05:47:05.171Z,44.53
2023-05-13T05:49:35.820Z,44.43
2023-05-13T05:52:06.456Z,44.21
2023-05-13T05:54:38.404Z,44.37
2023-05-13T05:57:09.258Z,44.56
2023-05-13T05:59:39.740Z,44.24
2023-05-13T06:02:10.878Z,44.68
2023-05-13T06:04:42.081Z,44.53
2023-05-13T06:07:13.810Z,44.13
2023-05-13T06:09:46.535Z,44.55
2023-05-13T06:12:17.051Z,44.53
2023-05-13T06:14:47.659Z,44.24
2023-05-13T06:17:18.329Z,44.28
2023-05-13T06:19:48.650Z,44.14
2023-05-13T06:22:18.603Z,44.41
2023-05-13T06:24:51.238Z,44.27
2023-05-13T06:27:21.776Z,44.14
2023-05-13T06:29:51.841Z,43.70
2023-05-13T06:32:22.534Z,43.64
2023-05-13T06:34:54.564Z,43.74
2023-05-13T06:37:25.857Z,43.94
2023-05-13T06:39:58.872Z,44.10
2023-05-13T06:42:29.489Z,44.00
2023-05-13T06:45:00.254Z,43.79
2023-05-13T06:47:31.033Z,44.00
2023-05-13T06:50:01.660Z,43.66
2023-05-13T06:52:32.056Z,43.46
2023-05-13T06:55:04.554Z,43.28
2023-05-13T06:57:42.350Z,43.48
2023-05-13T07:00:15.553Z,43.26
2023-05-13T07:02:45.798Z,43.66
2023-05-13T07:05:16.556Z,43.83
2023-05-13T07:07:47.152Z,43.86
2023-05-13T07:10:20.007Z,43.47
2023-05-13T07:12:50.902Z,43.21
2023-05-13T07:15:21.544Z,43.64
2023-05-13T07:17:51.948Z,43.34
2023-05-13T07:20:23.123Z,43.40
2023-05-13T07:22:54.212Z,43.48
2023-05-13T07:25:26.971Z,43.37
2023-05-13T07:27:57.570Z,43.14
2023-05-13T07:30:27.977Z,42.99
2023-05-13T07:32:58.239Z,43.08
2023-05-13T07:35:28.844Z,43.03
2023-05-13T07:37:59.580Z,43.26
2023-05-13T07:40:31.241Z,43.55
2023-05-13T07:43:01.265Z,42.69
2023-05-13T07:45:31.872Z,43.17
2023-05-13T07:48:02.252Z,43.05
2023-05-13T07:50:32.856Z,42.85
2023-05-13T07:53:02.982Z,42.74
2023-05-13T07:55:35.685Z,43.10
2023-05-13T07:58:07.044Z,43.08
2023-05-13T08:00:37.622Z,42.52
2023-05-13T08:03:08.283Z,43.08
2023-05-13T08:05:38.524Z,42.63
2023-05-13T08:08:09.199Z,42.56
2023-05-13T08:10:41.845Z,42.65
2023-05-13T08:13:12.315Z,43.02
2023-05-13T08:15:43.031Z,42.65
2023-05-13T08:18:13.682Z,42.68
2023-05-13T08:20:44.162Z,42.66
2023-05-13T08:23:14.244Z,42.08
2023-05-13T08:25:46.680Z,42.55
2023-05-13T08:28:16.530Z,42.53
2023-05-13T08:30:47.165Z,42.08
2023-05-13T08:33:16.961Z,42.14
2023-05-13T08:35:47.881Z,42.14
2023-05-13T08:38:18.020Z,42.43
2023-05-13T08:40:51.605Z,42.55
2023-05-13T08:43:26.960Z,42.28
2023-05-13T08:46:03.342Z,42.39
2023-05-13T08:48:36.578Z,42.22
2023-05-13T08:51:07.156Z,41.72
2023-05-13T08:53:38.507Z,42.16
2023-05-13T08:56:12.926Z,41.96
2023-05-13T08:58:44.211Z,42.08
2023-05-13T09:01:15.377Z,41.98
2023-05-13T09:04:00.861Z,42.04
2023-05-13T09:06:31.303Z,41.56
2023-05-13T09:09:03.305Z,41.60
2023-05-13T09:11:36.128Z,41.32
2023-05-13T09:14:08.743Z,41.73
2023-05-13T09:16:40.405Z,41.32
2023-05-13T09:19:11.728Z,41.47
2023-05-13T09:21:42.001Z,41.55
2023-05-13T09:24:18.480Z,41.51
2023-05-13T09:26:52.225Z,41.56
2023-05-13T09:29:24.799Z,41.07
2023-05-13T09:31:57.145Z,41.07
2023-05-13T09:34:33.441Z,41.49
2023-05-13T09:37:07.813Z,41.13
2023-05-13T09:39:43.696Z,41.02
2023-05-13T09:42:21.880Z,41.23
2023-05-13T09:44:52.661Z,40.99
2023-05-13T09:47:22.837Z,40.75
2023-05-13T09:49:59.373Z,40.84
2023-05-13T09:52:31.315Z,41.04
2023-05-13T09:55:05.001Z,41.10
2023-05-13T09:57:38.429Z,41.02
2023-05-13T10:00:21.223Z,40.79
2023-05-13T10:03:00.179Z,40.95
2023-05-13T10:05:30.234Z,41.15
2023-05-13T10:08:02.855Z,41.23
2023-05-13T10:10:37.440Z,40.97
2023-05-13T10:13:13.181Z,41.09
2023-05-13T10:15:51.804Z,40.63
2023-05-13T10:18:24.165Z,41.07
2023-05-13T10:20:55.466Z,41.07
2023-05-13T10:23:26.987Z,41.00
2023-05-13T10:26:01.322Z,41.13
2023-05-13T10:28:35.404Z,41.10
2023-05-13T10:31:07.510Z,41.31
2023-05-13T10:33:37.896Z,40.86
2023-05-13T10:36:38.069Z,40.55
2023-05-13T10:39:44.743Z,40.75
2023-05-13T10:42:55.281Z,40.73
2023-05-13T10:45:31.054Z,41.11
2023-05-13T10:48:12.135Z,41.00
2023-05-13T10:50:44.437Z,40.97
2023-05-13T10:53:26.060Z,41.01
2023-05-13T10:55:59.862Z,40.71
2023-05-13T10:58:43.864Z,40.60
2023-05-13T11:01:27.469Z,40.66
2023-05-13T11:04:00.989Z,40.77
2023-05-13T11:06:37.304Z,40.74
2023-05-13T11:09:10.902Z,40.32
2023-05-13T11:11:42.255Z,40.57
2023-05-13T11:14:19.910Z,40.25
2023-05-13T11:17:12.198Z,40.14
2023-05-13T11:19:50.668Z,40.45
2023-05-13T11:22:26.018Z,40.42
2023-05-13T11:25:12.534Z,39.99
2023-05-13T11:27:48.724Z,40.32
2023-05-13T11:30:32.449Z,40.18
2023-05-13T11:33:15.097Z,40.43
2023-05-13T11:36:01.513Z,40.72
2023-05-13T11:38:34.295Z,40.04
2023-05-13T11:41:06.244Z,40.40
2023-05-13T11:43:40.336Z,40.21
2023-05-13T11:46:21.577Z,40.50
2023-05-13T11:48:58.938Z,40.52
2023-05-13T11:51:32.720Z,40.49
2023-05-13T11:54:06.890Z,40.13
2023-05-13T11:56:39.570Z,40.45
2023-05-13T11:59:20.638Z,40.11
2023-05-13T12:02:05.912Z,40.68
2023-05-13T12:04:44.895Z,40.24
2023-05-13T12:07:24.392Z,40.69
2023-05-13T12:10:03.060Z,40.75
2023-05-13T12:12:37.675Z,40.84
2023-05-13T12:15:12.835Z,40.54
2023-05-13T12:17:49.162Z,40.31
2023-05-13T12:20:26.942Z,40.65
2023-05-13T12:23:04.780Z,40.08
2023-05-13T12:25:47.329Z,40.54
2023-05-13T12:28:21.355Z,40.74
2023-05-13T12:30:57.083Z,40.16
2023-05-13T12:33:33.627Z,40.18
2023-05-13T12:36:26.296Z,40.41
2023-05-13T12:39:04.054Z,40.19
2023-05-13T12:41:37.672Z,40.43
2023-05-13T12:44:13.974Z,40.23
2023-05-13T12:46:54.504Z,40.07
2023-05-13T12:49:24.531Z,40.18
2023-05-13T12:51:57.372Z,39.95
2023-05-13T12:54:27.797Z,40.18
2023-05-13T12:56:58.123Z,40.42
2023-05-13T12:59:29.865Z,40.08
2023-05-13T13:02:01.341Z,40.06
2023-05-13T13:04:31.640Z,39.90
2023-05-13T13:07:04.256Z,40.44
2023-05-13T13:09:34.047Z,40.37
2023-05-13T13:12:04.015Z,40.44
2023-05-13T13:14:34.514Z,40.46
2023-05-13T13:17:04.546Z,40.67
2023-05-13T13:19:34.938Z,40.47
2023-05-13T13:22:07.336Z,40.27
2023-05-13T13:24:37.808Z,40.50
2023-05-13T13:27:09.270Z,40.80
2023-05-13T13:29:40.013Z,40.25
2023-05-13T13:32:11.149Z,40.20
2023-05-13T13:34:41.979Z,40.16
2023-05-13T13:37:14.504Z,40.27
2023-05-13T13:39:45.917Z,40.42
2023-05-13T13:42:16.430Z,40.46
2023-05-13T13:44:46.984Z,40.59
2023-05-13T13:47:18.024Z,40.54
2023-05-13T13:49:48.400Z,40.21
2023-05-13T13:52:23.108Z,40.78
2023-05-13T13:54:53.586Z,40.49
2023-05-13T13:57:24.090Z,40.43
2023-05-13T13:59:53.997Z,40.46
2023-05-13T14:02:24.574Z,40.81
2023-05-13T14:04:56.037Z,40.35
2023-05-13T14:07:29.951Z,40.03
2023-05-13T14:10:01.406Z,40.36
2023-05-13T14:12:32.615Z,40.01
2023-05-13T14:15:03.201Z,40.46
2023-05-13T14:17:34.389Z,40.56
2023-05-13T14:20:05.441Z,40.46
2023-05-13T14:22:37.550Z,40.63
2023-05-13T14:25:09.774Z,40.23
2023-05-13T14:27:40.159Z,40.49
2023-05-13T14:30:12.716Z,40.62
2023-05-13T14:32:47.967Z,40.44
2023-05-13T14:35:21.918Z,40.18
2023-05-13T14:37:58.123Z,40.14
2023-05-13T14:40:32.690Z,40.02
2023-05-13T14:43:05.025Z,40.06
2023-05-13T14:45:38.316Z,40.18
2023-05-13T14:48:12.399Z,40.24
2023-05-13T14:50:43.722Z,40.12
2023-05-13T14:53:17.087Z,40.21
2023-05-13T14:55:51.153Z,40.37
2023-05-13T14:58:22.812Z,40.53
2023-05-13T15:00:54.009Z,40.15
2023-05-13T15:03:24.661Z,40.43
2023-05-13T15:05:55.299Z,40.49
2023-05-13T15:08:28.949Z,40.32
2023-05-13T15:10:59.740Z,39.97
2023-05-13T15:13:35.591Z,40.48
2023-05-13T15:16:07.193Z,40.24
2023-05-13T15:18:37.252Z,40.08
2023-05-13T15:21:07.955Z,40.15
2023-05-13T15:23:40.017Z,40.41
2023-05-13T15:26:11.112Z,39.98
2023-05-13T15:28:40.935Z,40.22
2023-05-13T15:31:12.227Z,40.53
2023-05-13T15:33:45.223Z,40.64
2023-05-13T15:36:16.013Z,40.40
2023-05-13T15:38:48.504Z,40.14
2023-05-13T15:41:22.155Z,40.51
2023-05-13T15:43:54.175Z,40.72
2023-05-13T15:46:25.759Z,40.64
2023-05-13T15:48:57.748Z,40.44
2023-05-13T15:51:29.969Z,40.65
2023-05-13T15:54:05.542Z,40.41
2023-05-13T15:56:40.807Z,40.29
2023-05-13T15:59:12.743Z,40.71
2023-05-13T16:01:47.556Z,40.43
2023-05-13T16:04:18.886Z,40.43
2023-05-13T16:06:49.592Z,40.29
2023-05-13T16:09:22.158Z,40.61
2023-05-13T16:11:53.647Z,40.53
2023-05-13T16:14:23.761Z,40.42
2023-05-13T16:16:53.714Z,40.75
2023-05-13T16:19:25.579Z,40.43
2023-05-13T16:21:59.019Z,41.08
2023-05-13T16:24:31.824Z,40.89
2023-05-13T16:27:03.312Z,40.64
2023-05-13T16:29:33.308Z,40.64
2023-05-13T16:32:03.865Z,40.40
2023-05-13T16:34:35.049Z,40.96
2023-05-13T16:37:06.180Z,40.85
2023-05-13T16:39:40.256Z,40.64
2023-05-13T16:42:10.948Z,40.68
2023-05-13T16:44:42.862Z,40.97
2023-05-13T16:47:14.601Z,40.58
2023-05-13T16:49:45.797Z,40.43
2023-05-13T16:52:16.930Z,40.64
2023-05-13T16:54:56.581Z,40.71
2023-05-13T16:57:28.730Z,40.84
2023-05-13T17:00:01.895Z,40.82
2023-05-13T17:02:37.276Z,40.42
2023-05-13T17:05:11.061Z,40.51
2023-05-13T17:07:43.105Z,40.63
2023-05-13T17:10:17.369Z,40.88
2023-05-13T17:12:49.721Z,41.02
2023-05-13T17:15:23.579Z,40.58
2023-05-13T17:17:56.080Z,41.20
2023-05-13T17:20:29.478Z,40.91
2023-05-13T17:23:01.184Z,41.10
2023-05-13T17:26:00.878Z,41.06
2023-05-13T17:28:35.146Z,40.98
2023-05-13T17:31:12.824Z,40.73
2023-05-13T17:33:44.061Z,40.96
2023-05-13T17:36:16.976Z,41.20
2023-05-13T17:38:56.772Z,40.99
2023-05-13T17:41:34.859Z,41.09
2023-05-13T17:44:09.166Z,41.20
2023-05-13T17:46:41.318Z,41.05
2023-05-13T17:49:13.159Z,40.87
2023-05-13T17:51:46.618Z,41.07
2023-05-13T17:54:25.142Z,41.18
2023-05-13T17:57:01.738Z,41.40
2023-05-13T17:59:36.421Z,41.09
2023-05-13T18:02:10.650Z,41.40
2023-05-13T18:04:43.016Z,41.39
2023-05-13T18:07:15.603Z,41.52
2023-05-13T18:09:49.308Z,41.32
2023-05-13T18:12:24.599Z,41.57
2023-05-13T18:14:55.153Z,41.34
2023-05-13T18:17:28.012Z,41.18
2023-05-13T18:20:01.161Z,41.49
2023-05-13T18:22:32.452Z,41.02
2023-05-13T18:25:03.642Z,41.19
2023-05-13T18:27:41.509Z,41.35
2023-05-13T18:30:15.786Z,40.91
2023-05-13T18:32:48.552Z,41.12
2023-05-13T18:35:21.952Z,41.38
2023-05-13T18:37:58.473Z,41.12
2023-05-13T18:40:32.767Z,41.14
2023-05-13T18:43:07.012Z,40.98
2023-05-13T18:45:42.635Z,41.22
2023-05-13T18:48:18.755Z,41.16
2023-05-13T18:50:54.899Z,41.00
2023-05-13T18:53:26.077Z,41.10
2023-05-13T18:55:59.451Z,41.15
2023-05-13T18:58:35.713Z,41.38
2023-05-13T19:01:07.959Z,41.31
2023-05-13T19:03:44.024Z,41.15
2023-05-13T19:06:17.234Z,41.27
2023-05-13T19:08:50.465Z,41.27
2023-05-13T19:11:24.059Z,41.32
2023-05-13T19:14:02.298Z,41.53
2023-05-13T19:16:38.724Z,41.30
2023-05-13T19:19:11.903Z,41.37
2023-05-13T19:21:48.676Z,41.20
2023-05-13T19:24:34.149Z,41.56
2023-05-13T19:27:06.260Z,41.60
2023-05-13T19:29:49.079Z,41.17
2023-05-13T19:32:25.816Z,41.41
2023-05-13T19:35:00.909Z,41.58
2023-05-13T19:37:38.798Z,41.11
2023-05-13T19:40:15.377Z,41.63
2023-05-13T19:42:47.861Z,41.65
2023-05-13T19:45:24.024Z,41.46
2023-05-13T19:47:57.896Z,41.40
2023-05-13T19:50:29.564Z,41.57
2023-05-13T19:53:03.162Z,41.37
2023-05-13T19:55:35.055Z,41.28
2023-05-13T19:58:05.783Z,41.64
2023-05-13T20:00:39.250Z,41.64
2023-05-13T20:03:10.318Z,41.88
2023-05-13T20:05:42.823Z,41.88
2023-05-13T20:08:14.203Z,41.74
2023-05-13T20:10:45.603Z,41.34
2023-05-13T20:13:16.539Z,41.58
2023-05-13T20:15:49.447Z,41.68
2023-05-13T20:18:19.560Z,41.24
2023-05-13T20:20:50.346Z,41.64
2023-05-13T20:23:25.274Z,41.61
2023-05-13T20:25:57.288Z,41.76
2023-05-13T20:28:29.543Z,41.51
2023-05-13T20:31:09.461Z,41.61
2023-05-13T20:33:43.718Z,41.40
2023-05-13T20:36:18.018Z,41.86
2023-05-13T20:38:53.368Z,41.77
2023-05-13T20:41:27.971Z,41.64
2023-05-13T20:44:00.840Z,41.81
2023-05-13T20:46:37.097Z,41.33
2023-05-13T20:49:17.371Z,41.73
2023-05-13T20:51:57.848Z,41.45
2023-05-13T20:54:32.358Z,41.72
2023-05-13T20:57:06.238Z,41.42
2023-05-13T20:59:40.421Z,41.88
2023-05-13T21:02:13.356Z,41.82
2023-05-13T21:04:45.729Z,41.74
2023-05-13T21:07:15.955Z,41.56
2023-05-13T21:09:46.622Z,41.51
2023-05-13T21:12:16.592Z,41.75
2023-05-13T21:14:47.065Z,41.36
2023-05-13T21:17:21.695Z,41.73
2023-05-13T21:19:52.916Z,41.89
2023-05-13T21:22:23.473Z,41.50
2023-05-13T21:24:54.004Z,41.77
2023-05-13T21:27:23.881Z,41.44
2023-05-13T21:29:53.977Z,41.58
2023-05-13T21:32:26.479Z,41.51
2023-05-13T21:34:58.775Z,41.45
2023-05-13T21:37:30.078Z,41.42
2023-05-13T21:40:00.635Z,41.46
2023-05-13T21:42:31.124Z,41.33
2023-05-13T21:45:00.907Z,41.57
2023-05-13T21:47:33.607Z,41.28
2023-05-13T21:50:04.531Z,41.44
2023-05-13T21:52:34.570Z,41.60
2023-05-13T21:55:04.546Z,41.53
2023-05-13T21:57:35.118Z,41.34
2023-05-13T22:00:07.641Z,41.52
2023-05-13T22:02:39.969Z,41.68
2023-05-13T22:05:11.649Z,41.77
2023-05-13T22:07:42.163Z,41.23
2023-05-13T22:10:13.778Z,41.70
2023-05-13T22:12:44.841Z,41.68
2023-05-13T22:15:15.543Z,41.84
2023-05-13T22:17:49.960Z,41.74
2023-05-13T22:20:21.666Z,41.62
2023-05-13T22:22:51.937Z,41.71
2023-05-13T22:25:21.910Z,41.88
2023-05-13T22:27:55.114Z,41.68
2023-05-13T22:30:25.947Z,41.56
2023-05-13T22:32:58.691Z,41.67
2023-05-13T22:35:29.292Z,41.88
2023-05-13T22:37:59.795Z,41.74
2023-05-13T22:40:30.492Z,41.75
2023-05-13T22:43:03.698Z,41.71
2023-05-13T22:45:34.188Z,41.82
2023-05-13T22:48:06.979Z,41.81
2023-05-13T22:50:37.609Z,41.79
2023-05-13T22:53:08.036Z,41.82
2023-05-13T22:55:38.120Z,41.95
2023-05-13T22:58:08.200Z,41.96
2023-05-13T23:00:38.714Z,41.75
2023-05-13T23:03:11.110Z,41.84
2023-05-13T23:05:41.027Z,41.92
2023-05-13T23:08:11.376Z,41.97
2023-05-13T23:10:41.433Z,41.96
2023-05-13T23:13:11.849Z,42.06
2023-05-13T23:15:41.664Z,42.06
2023-05-13T23:18:14.182Z,42.03
2023-05-13T23:20:44.926Z,42.15
2023-05-13T23:23:15.181Z,42.18
2023-05-13T23:25:47.919Z,42.18
2023-05-13T23:28:18.239Z,42.00
2023-05-13T23:30:48.271Z,41.84
2023-05-13T23:33:20.867Z,41.90
2023-05-13T23:35:56.053Z,41.81
2023-05-13T23:38:26.883Z,41.52
2023-05-13T23:40:57.526Z,42.24
2023-05-13T23:43:27.486Z,42.06
2023-05-13T23:45:57.397Z,42.40
2023-05-13T23:48:32.094Z,42.17
2023-05-13T23:51:02.684Z,41.95
2023-05-13T23:53:33.083Z,41.99
2023-05-13T23:56:03.251Z,42.15
2023-05-13T23:58:33.764Z,42.13
